Time;durP1;ratioP1;P1;durP2;ratioP2;P2;SDS_P1;SDS_P2;PMS_P1;PMS_P2;Temp;Humidity;BMP_temperature;BMP_pressure;BME280_temperature;BME280_humidity;BME280_pressure;Samples;Min_cycle;Max_cycle;Signal;HPM_P1;HPM_P2
2024/01/23 00:00:08;;;;;;;40.15;22.17;;;3.60;99.90;;;;;;4881051;29;20394;-76
2024/01/23 00:02:35;;;;;;;36.60;23.35;;;3.60;99.90;;;;;;4881034;29;20055;-76
2024/01/23 00:05:01;;;;;;;35.17;21.90;;;3.50;99.90;;;;;;4864466;29;20036;-77
2024/01/23 00:07:27;;;;;;;37.08;21.65;;;3.50;99.90;;;;;;4880971;29;20021;-76
2024/01/23 00:09:54;;;;;;;32.45;20.92;;;3.30;99.90;;;;;;4880813;29;20116;-76
2024/01/23 00:12:20;;;;;;;31.88;20.75;;;3.30;99.90;;;;;;4881315;29;20494;-76
2024/01/23 00:14:47;;;;;;;32.53;21.30;;;3.30;99.90;;;;;;4880923;29;20128;-76
2024/01/23 00:17:14;;;;;;;26.63;19.85;;;3.30;99.90;;;;;;4880829;29;20025;-76
2024/01/23 00:19:40;;;;;;;28.30;19.67;;;3.20;99.90;;;;;;4880689;29;20514;-77
2024/01/23 00:22:07;;;;;;;27.50;19.80;;;3.20;99.90;;;;;;4880725;29;20036;-76
2024/01/23 00:24:33;;;;;;;28.13;19.75;;;3.20;99.90;;;;;;4880333;29;20490;-77
2024/01/23 00:26:59;;;;;;;33.45;20.92;;;3.20;99.90;;;;;;4899341;29;20475;-76
2024/01/23 00:29:25;;;;;;;30.92;20.77;;;3.20;99.90;;;;;;4899362;29;20028;-76
2024/01/23 00:31:51;;;;;;;28.67;19.75;;;3.20;99.90;;;;;;4899602;29;20482;-77
2024/01/23 00:34:18;;;;;;;35.53;20.05;;;3.10;99.90;;;;;;4884931;29;20025;-76
2024/01/23 00:36:44;;;;;;;31.52;19.98;;;3.10;99.90;;;;;;4863782;29;20029;-76
2024/01/23 00:39:10;;;;;;;27.85;19.25;;;3.10;99.90;;;;;;4880271;29;20041;-76
2024/01/23 00:41:38;;;;;;;32.67;21.27;;;3.00;99.90;;;;;;4880389;29;20459;-76
2024/01/23 00:44:05;;;;;;;29.90;20.80;;;2.90;99.90;;;;;;4893154;29;20025;-77
2024/01/23 00:46:31;;;;;;;39.65;22.33;;;2.90;99.90;;;;;;4882288;29;20039;-76
2024/01/23 00:49:01;;;;;;;30.83;21.45;;;2.80;99.90;;;;;;4882310;29;20409;-77
2024/01/23 00:51:29;;;;;;;31.88;22.05;;;2.80;99.90;;;;;;4898899;29;20031;-76
2024/01/23 00:54:02;;;;;;;37.58;22.80;;;2.80;99.90;;;;;;4887462;29;20115;-76
2024/01/23 00:56:29;;;;;;;38.70;23.48;;;2.70;99.90;;;;;;4880134;29;20096;-76
2024/01/23 00:58:55;;;;;;;36.63;23.23;;;2.70;99.90;;;;;;4880017;29;20056;-76
2024/01/23 01:01:21;;;;;;;46.03;23.33;;;2.70;99.90;;;;;;4880044;29;20240;-76
2024/01/23 01:03:47;;;;;;;36.58;23.17;;;2.60;99.90;;;;;;4889955;29;20471;-76
2024/01/23 01:06:17;;;;;;;33.60;22.63;;;2.60;99.90;;;;;;4898561;29;20036;-76
2024/01/23 01:08:43;;;;;;;38.95;23.02;;;2.60;99.90;;;;;;4898631;29;20544;-76
2024/01/23 01:11:10;;;;;;;38.53;23.00;;;2.60;99.90;;;;;;4898556;29;20048;-76
2024/01/23 01:13:36;;;;;;;31.95;22.98;;;2.60;99.90;;;;;;4873030;29;20045;-76
2024/01/23 01:16:02;;;;;;;35.17;22.10;;;2.60;99.90;;;;;;4879833;29;20398;-76
2024/01/23 01:18:31;;;;;;;36.15;23.17;;;2.50;99.90;;;;;;4877620;29;20098;-77
2024/01/23 01:21:01;;;;;;;36.40;22.65;;;2.50;99.90;;;;;;4880577;29;20040;-77
2024/01/23 01:23:27;;;;;;;35.80;22.15;;;2.50;99.90;;;;;;4877565;29;20040;-77
2024/01/23 01:25:54;;;;;;;34.33;23.13;;;2.50;99.90;;;;;;4863177;29;20041;-77
2024/01/23 01:28:20;;;;;;;39.08;24.33;;;2.40;99.90;;;;;;4878340;29;20040;-76
2024/01/23 01:30:47;;;;;;;31.20;21.45;;;2.40;99.90;;;;;;4879556;29;20029;-76
2024/01/23 01:33:17;;;;;;;35.10;22.15;;;2.40;99.90;;;;;;4864913;29;20033;-76
2024/01/23 01:35:44;;;;;;;37.65;22.52;;;2.30;99.90;;;;;;4879527;29;20033;-76
2024/01/23 01:38:10;;;;;;;34.22;22.45;;;2.30;99.90;;;;;;4879530;29;20029;-76
2024/01/23 01:40:40;;;;;;;39.83;23.70;;;2.20;99.90;;;;;;4879419;29;20104;-76
2024/01/23 01:43:24;;;;;;;33.20;22.83;;;2.20;99.90;;;;;;4878131;29;20021;-77
2024/01/23 01:46:10;;;;;;;35.72;22.42;;;2.10;99.90;;;;;;4879301;29;20101;-76
2024/01/23 01:48:38;;;;;;;30.40;21.25;;;2.10;99.90;;;;;;4874139;29;20481;-76
2024/01/23 01:51:05;;;;;;;35.50;21.60;;;2.10;99.90;;;;;;4879266;29;20017;-77
2024/01/23 01:53:33;;;;;;;35.30;21.63;;;2.00;99.90;;;;;;4879130;29;20044;-77
2024/01/23 01:56:00;;;;;;;42.38;23.98;;;2.00;99.90;;;;;;4876779;29;20105;-76
2024/01/23 01:58:28;;;;;;;34.92;22.23;;;2.00;99.90;;;;;;4878812;29;20109;-76
2024/01/23 02:00:55;;;;;;;31.70;19.85;;;2.00;99.90;;;;;;4879083;29;20045;-77
2024/01/23 02:03:21;;;;;;;28.42;21.20;;;2.00;99.90;;;;;;4893494;29;20109;-76
2024/01/23 02:05:51;;;;;;;34.00;21.45;;;2.00;99.90;;;;;;4879139;29;20032;-77
2024/01/23 02:08:21;;;;;;;31.95;21.45;;;2.00;99.90;;;;;;4879184;29;20025;-77
2024/01/23 02:10:47;;;;;;;29.90;20.58;;;2.00;99.90;;;;;;4879094;29;20136;-76
2024/01/23 02:13:13;;;;;;;31.83;20.80;;;1.90;99.90;;;;;;4886678;29;20067;-76
2024/01/23 02:15:40;;;;;;;31.70;21.05;;;2.00;99.90;;;;;;4897738;29;20103;-76
2024/01/23 02:18:06;;;;;;;28.63;19.90;;;1.90;99.90;;;;;;4883660;29;20036;-76
2024/01/23 02:20:32;;;;;;;29.17;19.88;;;2.00;99.90;;;;;;4879013;29;20041;-76
2024/01/23 02:22:59;;;;;;;31.35;20.23;;;2.00;99.90;;;;;;4879336;29;20429;-76
2024/01/23 02:25:25;;;;;;;32.80;19.38;;;1.90;99.90;;;;;;4887551;29;20035;-77
2024/01/23 02:27:51;;;;;;;25.70;19.23;;;1.90;99.90;;;;;;4897585;29;20029;-76
2024/01/23 02:30:20;;;;;;;29.05;20.30;;;2.00;99.90;;;;;;4880955;29;20167;-76
2024/01/23 02:32:47;;;;;;;30.25;20.13;;;2.00;99.90;;;;;;4897873;29;20410;-76
2024/01/23 02:35:13;;;;;;;32.90;20.50;;;2.00;99.90;;;;;;4884593;29;20064;-77
2024/01/23 02:37:43;;;;;;;29.85;20.48;;;1.90;99.90;;;;;;4882603;29;20025;-77
2024/01/23 02:40:09;;;;;;;26.23;19.50;;;1.90;99.90;;;;;;4882703;29;20089;-77
2024/01/23 02:42:35;;;;;;;26.88;20.13;;;1.90;99.90;;;;;;4882492;29;20069;-76
2024/01/23 02:45:02;;;;;;;26.30;19.73;;;1.90;99.90;;;;;;4895425;29;20119;-76
2024/01/23 02:47:28;;;;;;;33.03;20.70;;;1.90;99.90;;;;;;4900019;29;20028;-76
2024/01/23 02:49:54;;;;;;;29.60;20.98;;;1.80;99.90;;;;;;4901105;29;20486;-77
2024/01/23 02:52:21;;;;;;;32.13;21.05;;;1.80;99.90;;;;;;4901059;29;20027;-76
2024/01/23 02:54:47;;;;;;;31.65;20.95;;;1.80;99.90;;;;;;4889746;29;20084;-76
2024/01/23 02:57:14;;;;;;;29.73;20.60;;;1.70;99.90;;;;;;4882182;29;20070;-77
2024/01/23 02:59:43;;;;;;;31.58;20.27;;;1.70;99.90;;;;;;4865608;29;20029;-76
2024/01/23 03:02:13;;;;;;;30.50;20.42;;;1.70;99.90;;;;;;4882208;29;20025;-76
2024/01/23 03:04:39;;;;;;;28.65;20.25;;;1.70;99.90;;;;;;4891920;29;20035;-76
2024/01/23 03:07:09;;;;;;;33.20;21.35;;;1.70;99.90;;;;;;4886645;29;20032;-76
2024/01/23 03:09:35;;;;;;;32.55;20.05;;;1.70;99.90;;;;;;4881762;29;20545;-76
2024/01/23 03:12:16;;;;;;;28.17;19.67;;;1.70;99.90;;;;;;4882045;29;20037;-76
2024/01/23 03:14:44;;;;;;;33.90;21.40;;;1.70;99.90;;;;;;4892116;29;20626;-76
2024/01/23 03:17:11;;;;;;;26.60;19.23;;;1.70;99.90;;;;;;4887571;29;20029;-76
2024/01/23 03:19:38;;;;;;;35.42;19.92;;;1.70;99.90;;;;;;4881799;29;20040;-77
2024/01/23 03:22:05;;;;;;;29.30;19.48;;;1.70;99.90;;;;;;4881734;29;20029;-77
2024/01/23 03:24:32;;;;;;;29.30;19.77;;;1.70;99.90;;;;;;4884951;29;20514;-77
2024/01/23 03:26:59;;;;;;;30.67;19.23;;;1.60;99.90;;;;;;4881415;29;20165;-77
2024/01/23 03:29:27;;;;;;;29.35;19.40;;;1.70;99.90;;;;;;4881009;29;20500;-76
2024/01/23 03:31:54;;;;;;;30.92;20.10;;;1.70;99.90;;;;;;4881166;29;20433;-77
2024/01/23 03:34:20;;;;;;;55.97;22.60;;;1.70;99.90;;;;;;4885005;29;20483;-77
2024/01/23 03:36:46;;;;;;;27.15;19.42;;;1.70;99.90;;;;;;4881551;29;20025;-76
2024/01/23 03:39:19;;;;;;;26.60;19.23;;;1.70;99.90;;;;;;4881423;29;20486;-77
2024/01/23 03:41:46;;;;;;;29.67;20.17;;;1.70;99.90;;;;;;4881435;29;20498;-76
2024/01/23 03:44:12;;;;;;;31.70;18.92;;;1.70;99.90;;;;;;4884814;29;20024;-77
2024/01/23 03:46:39;;;;;;;34.15;19.75;;;1.70;99.90;;;;;;4880580;29;20029;-77
2024/01/23 03:49:05;;;;;;;30.83;19.35;;;1.70;99.90;;;;;;4881347;29;20059;-77
2024/01/23 03:51:31;;;;;;;30.10;19.65;;;1.70;99.90;;;;;;4879940;29;20440;-77
2024/01/23 03:53:57;;;;;;;29.58;18.50;;;1.70;99.90;;;;;;4883733;29;20029;-77
2024/01/23 03:56:23;;;;;;;29.70;19.73;;;1.70;99.90;;;;;;4897096;29;20037;-77
2024/01/23 03:58:49;;;;;;;28.52;18.30;;;1.70;99.90;;;;;;4899753;29;20406;-77
2024/01/23 04:01:16;;;;;;;26.17;19.42;;;1.70;99.90;;;;;;4899787;29;20107;-76
2024/01/23 04:03:45;;;;;;;33.80;18.55;;;1.70;99.90;;;;;;4898080;29;20020;-76
2024/01/23 04:06:14;;;;;;;25.92;18.58;;;1.70;99.90;;;;;;4880247;29;20021;-76
2024/01/23 04:08:41;;;;;;;23.10;18.42;;;1.70;99.90;;;;;;4879609;29;20450;-76
2024/01/23 04:11:08;;;;;;;24.52;17.73;;;1.70;99.90;;;;;;4880833;29;20025;-77
2024/01/23 04:13:35;;;;;;;26.35;18.02;;;1.70;99.90;;;;;;4880679;29;20053;-77
2024/01/23 04:16:01;;;;;;;29.25;18.02;;;1.70;99.90;;;;;;4879301;29;20029;-76
2024/01/23 04:18:27;;;;;;;23.70;17.70;;;1.60;99.90;;;;;;4880716;29;20096;-76
2024/01/23 04:20:54;;;;;;;28.13;18.38;;;1.60;99.90;;;;;;4880816;29;20037;-77
2024/01/23 04:23:20;;;;;;;24.00;18.08;;;1.60;99.90;;;;;;4880673;29;20029;-77
2024/01/23 04:25:46;;;;;;;26.80;19.05;;;1.60;99.90;;;;;;4880456;29;20029;-78
2024/01/23 04:28:13;;;;;;;27.73;17.88;;;1.60;99.90;;;;;;4880690;29;20152;-78
2024/01/23 04:30:42;;;;;;;24.77;17.73;;;1.60;99.90;;;;;;4864072;29;20033;-78
2024/01/23 04:33:09;;;;;;;28.10;17.98;;;1.60;99.90;;;;;;4880496;29;20029;-78
2024/01/23 04:35:35;;;;;;;22.20;17.38;;;1.60;99.90;;;;;;4880238;29;20033;-77
2024/01/23 04:38:02;;;;;;;23.75;17.70;;;1.60;99.90;;;;;;4880468;29;20057;-77
2024/01/23 04:40:28;;;;;;;22.42;16.90;;;1.60;99.90;;;;;;4880311;29;20033;-77
2024/01/23 04:42:55;;;;;;;24.80;17.58;;;1.60;99.90;;;;;;4880323;29;20036;-77
2024/01/23 04:45:24;;;;;;;23.40;17.17;;;1.60;99.90;;;;;;4879927;29;20479;-76
2024/01/23 04:47:50;;;;;;;26.45;17.63;;;1.60;99.90;;;;;;4880246;29;20069;-76
2024/01/23 04:50:16;;;;;;;21.35;17.23;;;1.60;99.90;;;;;;4879021;29;20461;-76
2024/01/23 04:52:43;;;;;;;28.77;17.80;;;1.60;99.90;;;;;;4863523;29;20479;-76
2024/01/23 04:55:12;;;;;;;32.35;17.80;;;1.60;99.90;;;;;;4879783;29;20479;-77
2024/01/23 04:57:38;;;;;;;24.75;18.38;;;1.60;99.90;;;;;;4880048;29;20542;-76
2024/01/23 05:00:05;;;;;;;26.52;17.73;;;1.60;99.90;;;;;;4863447;29;20044;-79
2024/01/23 05:02:35;;;;;;;24.38;16.70;;;1.60;99.90;;;;;;4880044;29;20109;-76
2024/01/23 05:05:05;;;;;;;28.00;18.00;;;1.60;99.90;;;;;;4879761;29;20029;-76
2024/01/23 05:07:31;;;;;;;23.55;17.05;;;1.60;99.90;;;;;;4879887;29;20101;-76
2024/01/23 05:09:58;;;;;;;26.50;17.30;;;1.60;99.90;;;;;;4879939;29;20032;-76
2024/01/23 05:12:24;;;;;;;25.55;17.60;;;1.60;99.90;;;;;;4879744;29;20112;-77
2024/01/23 05:14:52;;;;;;;28.45;17.00;;;1.70;99.90;;;;;;4879476;29;20076;-77
2024/01/23 05:17:18;;;;;;;23.15;16.40;;;1.70;99.90;;;;;;4879747;29;20033;-76
2024/01/23 05:19:45;;;;;;;22.45;17.52;;;1.70;99.90;;;;;;4879684;29;20029;-77
2024/01/23 05:22:11;;;;;;;23.30;17.35;;;1.70;99.90;;;;;;4863244;29;20044;-76
2024/01/23 05:24:37;;;;;;;25.08;17.00;;;1.70;99.90;;;;;;4879505;29;20025;-76
2024/01/23 05:27:04;;;;;;;22.88;16.65;;;1.70;99.90;;;;;;4879573;29;20076;-76
2024/01/23 05:29:30;;;;;;;25.60;17.60;;;1.70;99.90;;;;;;4879695;29;20531;-75
2024/01/23 05:31:56;;;;;;;24.95;17.15;;;1.80;99.90;;;;;;4879571;29;20033;-77
2024/01/23 05:34:23;;;;;;;22.33;16.77;;;1.80;99.90;;;;;;4879434;29;20029;-76
2024/01/23 05:36:49;;;;;;;25.55;18.30;;;1.80;99.90;;;;;;4847497;29;20519;-77
2024/01/23 05:39:16;;;;;;;26.95;17.98;;;1.80;99.90;;;;;;4879300;29;20040;-76
2024/01/23 05:41:43;;;;;;;20.75;16.75;;;1.90;99.90;;;;;;4862565;29;20407;-76
2024/01/23 05:44:10;;;;;;;24.30;17.98;;;1.80;99.90;;;;;;4879403;29;20032;-76
2024/01/23 05:46:36;;;;;;;21.45;18.60;;;1.80;99.90;;;;;;4878998;29;20479;-76
2024/01/23 05:49:03;;;;;;;28.58;18.35;;;1.80;99.90;;;;;;4879188;29;20382;-76
2024/01/23 05:51:29;;;;;;;27.55;19.13;;;1.80;99.90;;;;;;4878069;29;20033;-76
2024/01/23 05:53:55;;;;;;;26.15;18.65;;;1.80;99.90;;;;;;4884435;29;20060;-76
2024/01/23 05:56:21;;;;;;;26.40;18.52;;;1.90;99.90;;;;;;4866095;29;20085;-76
2024/01/23 05:58:48;;;;;;;26.85;18.08;;;1.80;99.90;;;;;;4862147;29;20510;-76
2024/01/23 06:01:14;;;;;;;27.42;18.10;;;1.90;99.90;;;;;;4879071;29;20121;-76
2024/01/23 06:03:41;;;;;;;26.27;18.92;;;2.00;99.90;;;;;;4878958;29;20040;-77
2024/01/23 06:06:07;;;;;;;28.90;18.30;;;2.00;99.90;;;;;;4879304;29;20043;-76
2024/01/23 06:08:34;;;;;;;27.52;17.88;;;2.00;99.90;;;;;;4879154;29;20025;-76
2024/01/23 06:11:00;;;;;;;24.00;17.73;;;2.10;99.90;;;;;;4865471;29;20025;-76
2024/01/23 06:13:27;;;;;;;26.98;19.48;;;2.20;99.90;;;;;;4862824;29;20049;-76
2024/01/23 06:15:53;;;;;;;29.88;20.95;;;2.40;99.90;;;;;;4863196;29;20056;-76
2024/01/23 06:18:19;;;;;;;28.73;20.73;;;2.40;99.90;;;;;;4864311;29;20034;-76
2024/01/23 06:20:46;;;;;;;28.75;20.25;;;2.60;99.90;;;;;;4862599;29;20048;-76
2024/01/23 06:23:12;;;;;;;26.55;20.65;;;2.70;99.90;;;;;;4861686;29;20029;-76
2024/01/23 06:25:38;;;;;;;30.20;19.73;;;2.80;99.90;;;;;;4863475;29;20026;-76
2024/01/23 06:28:05;;;;;;;33.15;20.75;;;2.90;99.90;;;;;;4863703;29;20081;-76
2024/01/23 06:30:31;;;;;;;25.40;20.67;;;2.90;99.90;;;;;;4862888;29;20487;-76
2024/01/23 06:32:58;;;;;;;23.65;20.10;;;3.10;99.90;;;;;;4863994;29;20069;-75
2024/01/23 06:35:24;;;;;;;26.23;19.60;;;3.20;99.90;;;;;;4862827;29;20040;-75
2024/01/23 06:37:51;;;;;;;25.92;18.48;;;3.20;99.90;;;;;;4863874;29;20065;-75
2024/01/23 06:40:17;;;;;;;23.23;18.35;;;3.30;99.90;;;;;;4863900;29;20072;-76
2024/01/23 06:42:44;;;;;;;23.00;19.13;;;3.40;99.90;;;;;;4863922;29;20026;-76
2024/01/23 06:45:10;;;;;;;25.50;18.58;;;3.50;99.90;;;;;;4863428;29;20475;-75
2024/01/23 06:47:37;;;;;;;26.58;19.02;;;3.50;99.90;;;;;;4863542;29;20081;-75
2024/01/23 06:50:04;;;;;;;26.85;19.20;;;3.60;99.90;;;;;;4862610;29;20105;-75
2024/01/23 06:52:30;;;;;;;23.13;17.58;;;3.70;99.90;;;;;;4863650;29;20032;-75
2024/01/23 06:54:57;;;;;;;27.45;19.20;;;3.80;99.90;;;;;;4863554;29;20022;-76
2024/01/23 06:57:24;;;;;;;29.98;20.13;;;3.90;99.90;;;;;;4863329;29;20045;-76
2024/01/23 06:59:51;;;;;;;21.88;18.17;;;4.00;99.90;;;;;;4862415;29;20035;-76
2024/01/23 07:02:17;;;;;;;31.23;19.38;;;4.00;99.90;;;;;;4863562;29;20029;-76
2024/01/23 07:04:44;;;;;;;24.35;18.38;;;4.00;99.90;;;;;;4861970;29;20041;-75
2024/01/23 07:07:14;;;;;;;30.52;19.70;;;4.20;99.90;;;;;;4878332;29;20076;-76
2024/01/23 07:09:40;;;;;;;23.85;19.00;;;4.40;99.90;;;;;;4865024;29;20021;-76
2024/01/23 07:12:06;;;;;;;24.55;19.15;;;4.30;99.90;;;;;;4863342;29;20479;-76
2024/01/23 07:14:33;;;;;;;35.50;20.33;;;4.30;99.90;;;;;;4864985;29;20060;-76
2024/01/23 07:17:03;;;;;;;37.25;19.42;;;4.30;99.90;;;;;;4881934;29;20029;-76
2024/01/23 07:19:29;;;;;;;31.65;20.23;;;4.40;99.90;;;;;;4881671;29;20039;-76
2024/01/23 07:21:56;;;;;;;27.50;19.25;;;4.40;99.90;;;;;;4880242;29;20510;-76
2024/01/23 07:24:23;;;;;;;23.20;19.15;;;4.50;99.90;;;;;;4888956;29;20096;-76
2024/01/23 07:26:49;;;;;;;40.85;22.77;;;4.60;99.90;;;;;;4881362;29;20088;-76
2024/01/23 07:29:16;;;;;;;29.80;20.20;;;4.70;99.90;;;;;;4881545;29;20037;-76
2024/01/23 07:31:43;;;;;;;28.92;20.38;;;4.70;99.90;;;;;;4869616;29;20064;-76
2024/01/23 07:34:10;;;;;;;25.20;20.00;;;4.80;99.90;;;;;;4849476;29;20033;-76
2024/01/23 07:36:36;;;;;;;24.55;19.95;;;4.90;99.90;;;;;;4861744;29;20029;-76
2024/01/23 07:39:04;;;;;;;22.10;18.52;;;5.00;99.90;;;;;;4875281;29;20089;-76
2024/01/23 07:41:31;;;;;;;23.25;18.20;;;5.10;99.90;;;;;;4881551;29;20084;-76
2024/01/23 07:43:58;;;;;;;24.00;19.05;;;5.10;99.90;;;;;;4880231;29;20040;-76
2024/01/23 07:46:28;;;;;;;25.60;19.30;;;5.20;99.90;;;;;;4862804;29;20029;-76
2024/01/23 07:48:54;;;;;;;23.13;19.23;;;5.20;99.90;;;;;;4862644;29;20029;-76
2024/01/23 07:51:21;;;;;;;26.75;20.80;;;5.30;99.90;;;;;;4865283;29;20095;-77
2024/01/23 07:53:48;;;;;;;29.73;21.55;;;5.40;99.90;;;;;;4881247;29;20045;-76
2024/01/23 07:56:14;;;;;;;28.33;21.48;;;5.60;99.90;;;;;;4880066;29;20391;-76
2024/01/23 07:58:46;;;;;;;27.80;20.77;;;5.80;99.90;;;;;;4879757;29;20391;-76
2024/01/23 08:01:13;;;;;;;25.15;20.63;;;6.10;99.90;;;;;;4881046;29;20566;-77
2024/01/23 08:03:42;;;;;;;26.88;21.33;;;6.40;99.90;;;;;;4881067;29;20021;-76
2024/01/23 08:06:09;;;;;;;27.90;21.52;;;6.60;99.90;;;;;;4881062;29;20036;-77
2024/01/23 08:08:36;;;;;;;25.58;20.73;;;6.80;99.90;;;;;;4880840;29;20029;-76
2024/01/23 08:11:05;;;;;;;22.88;20.27;;;7.20;99.90;;;;;;4880950;29;20041;-76
2024/01/23 08:13:32;;;;;;;23.63;21.23;;;7.70;99.90;;;;;;4890722;29;20483;-77
2024/01/23 08:15:58;;;;;;;22.30;19.98;;;8.00;99.90;;;;;;4899325;29;20028;-75
2024/01/23 08:18:25;;;;;;;27.17;19.85;;;8.50;99.90;;;;;;4896535;29;20022;-76
2024/01/23 08:20:51;;;;;;;23.90;21.35;;;8.90;99.90;;;;;;4880652;29;20045;-75
2024/01/23 08:23:18;;;;;;;24.13;21.73;;;9.20;99.90;;;;;;4880630;29;20024;-76
2024/01/23 08:25:45;;;;;;;22.67;20.60;;;9.20;99.90;;;;;;4880666;29;20044;-76
2024/01/23 08:28:12;;;;;;;23.85;21.15;;;9.10;99.90;;;;;;4881533;29;20025;-76
2024/01/23 08:30:39;;;;;;;23.65;21.30;;;9.10;99.90;;;;;;4890194;29;20076;-77
2024/01/23 08:33:05;;;;;;;23.15;20.95;;;9.00;99.90;;;;;;4863463;29;20056;-77
2024/01/23 08:35:32;;;;;;;23.88;21.48;;;9.10;99.90;;;;;;4880527;29;20117;-77
2024/01/23 08:37:58;;;;;;;23.73;21.33;;;9.20;99.90;;;;;;4880415;29;20054;-78
2024/01/23 08:40:25;;;;;;;22.83;20.77;;;9.50;99.90;;;;;;4898274;29;20079;-78
2024/01/23 08:42:52;;;;;;;22.25;20.33;;;9.80;99.90;;;;;;4899114;29;20136;-80
2024/01/23 08:45:18;;;;;;;23.83;21.65;;;10.00;99.90;;;;;;4882144;29;20043;-79
2024/01/23 08:47:44;;;;;;;23.52;21.65;;;10.10;99.90;;;;;;4882306;29;20478;-78
2024/01/23 08:50:11;;;;;;;23.45;21.60;;;10.40;99.90;;;;;;4882775;29;20037;-79
2024/01/23 08:52:40;;;;;;;23.42;21.50;;;10.70;99.90;;;;;;4880056;29;20104;-78
2024/01/23 08:55:07;;;;;;;23.48;21.55;;;10.70;99.90;;;;;;4863249;29;20041;-78
2024/01/23 08:57:34;;;;;;;23.75;21.45;;;10.80;99.90;;;;;;4878790;29;20104;-78
2024/01/23 09:00:02;;;;;;;22.45;20.58;;;11.00;99.90;;;;;;4883165;29;20061;-79
2024/01/23 09:02:29;;;;;;;23.35;21.35;;;11.00;99.90;;;;;;4870898;29;20511;-81
2024/01/23 09:04:55;;;;;;;23.58;21.23;;;11.00;99.90;;;;;;4852609;29;20064;-79
2024/01/23 09:07:22;;;;;;;24.25;22.00;;;11.30;99.90;;;;;;4869188;29;20033;-79
2024/01/23 09:09:49;;;;;;;23.55;21.42;;;11.60;99.90;;;;;;4871389;29;20026;-79
2024/01/23 09:12:20;;;;;;;22.27;20.48;;;11.50;99.90;;;;;;4867718;29;20052;-79
2024/01/23 09:14:48;;;;;;;23.27;21.08;;;11.30;99.90;;;;;;4870605;29;20028;-80
2024/01/23 09:17:16;;;;;;;23.23;21.30;;;11.20;99.90;;;;;;4889549;29;20545;-79
2024/01/23 09:19:43;;;;;;;26.08;24.02;;;11.10;99.90;;;;;;4874520;29;20049;-87
2024/01/23 09:22:10;;;;;;;26.90;25.02;;;11.00;99.90;;;;;;4879782;29;20032;-92
2024/01/23 09:24:36;;;;;;;29.25;26.83;;;11.00;99.90;;;;;;4889846;29;20123;-86
2024/01/23 09:27:04;;;;;;;32.10;29.73;;;11.10;99.90;;;;;;4879020;29;20029;-86
2024/01/23 09:29:53;;;;;;;33.15;30.77;;;11.20;99.90;;;;;;4878848;29;20591;-86
2024/01/23 09:32:27;;;;;;;35.20;31.90;;;11.50;99.90;;;;;;4879546;29;20173;-86
2024/01/23 09:34:53;;;;;;;33.88;31.02;;;11.40;99.90;;;;;;4879241;29;20053;-86
2024/01/23 09:37:20;;;;;;;34.85;32.08;;;11.40;99.90;;;;;;4879023;29;20028;-86
2024/01/23 09:39:46;;;;;;;35.00;32.22;;;11.50;99.90;;;;;;4874540;29;20391;-86
2024/01/23 09:42:14;;;;;;;34.80;31.90;;;11.50;99.90;;;;;;4848137;29;20109;-85
2024/01/23 09:44:41;;;;;;;33.75;30.92;;;11.50;99.90;;;;;;4847688;29;20029;-86
2024/01/23 09:47:10;;;;;;;33.83;31.20;;;11.40;99.90;;;;;;4878810;29;20033;-87
2024/01/23 09:49:37;;;;;;;34.03;31.42;;;11.30;99.90;;;;;;4871019;29;20029;-86
2024/01/23 09:52:05;;;;;;;33.13;30.58;;;11.40;99.90;;;;;;4878470;29;20444;-87
2024/01/23 09:54:32;;;;;;;34.22;31.52;;;11.60;99.90;;;;;;4878730;29;20627;-84
2024/01/23 09:57:01;;;;;;;34.67;31.55;;;11.80;99.90;;;;;;4878653;29;20467;-85
2024/01/23 09:59:28;;;;;;;34.65;31.98;;;12.00;99.90;;;;;;4878381;29;20066;-85
2024/01/23 10:01:55;;;;;;;34.13;31.67;;;12.10;99.90;;;;;;4847756;29;20029;-86
2024/01/23 10:04:23;;;;;;;32.92;30.70;;;12.20;99.90;;;;;;4863258;29;20093;-85
2024/01/23 10:06:49;;;;;;;33.55;31.25;;;12.00;99.90;;;;;;4848169;29;20029;-85
2024/01/23 10:09:17;;;;;;;32.95;30.40;;;11.90;99.90;;;;;;4863022;29;20464;-86
2024/01/23 10:11:44;;;;;;;33.03;30.40;;;12.10;99.90;;;;;;4847666;29;20507;-86
2024/01/23 10:14:10;;;;;;;33.75;31.05;;;12.40;99.90;;;;;;4847532;29;20115;-85
2024/01/23 10:16:43;;;;;;;33.13;30.70;;;12.50;99.90;;;;;;4879827;29;20037;-85
2024/01/23 10:19:13;;;;;;;34.42;31.50;;;12.20;99.90;;;;;;4880960;29;20062;-86
2024/01/23 10:21:42;;;;;;;33.33;30.77;;;12.00;99.90;;;;;;4884252;29;20041;-86
2024/01/23 10:24:10;;;;;;;32.72;30.42;;;12.00;99.90;;;;;;4878846;29;20033;-86
2024/01/23 10:26:36;;;;;;;33.38;31.02;;;12.00;99.90;;;;;;4878660;29;20029;-86
2024/01/23 10:29:04;;;;;;;33.80;30.98;;;11.90;99.90;;;;;;4878719;29;20356;-86
2024/01/23 10:31:30;;;;;;;34.35;31.35;;;11.90;99.90;;;;;;4894184;29;20062;-85
2024/01/23 10:33:57;;;;;;;34.58;31.77;;;11.90;99.90;;;;;;4885481;29;20029;-86
2024/01/23 10:36:24;;;;;;;34.92;31.95;;;12.20;99.90;;;;;;4897802;29;20041;-86
2024/01/23 10:38:54;;;;;;;37.53;34.22;;;12.30;99.90;;;;;;4892820;29;20033;-86
2024/01/23 10:41:25;;;;;;;35.50;32.47;;;12.50;99.90;;;;;;4862927;29;20041;-86
2024/01/23 10:44:18;;;;;;;33.45;30.92;;;12.40;99.90;;;;;;4862947;29;20045;-85
2024/01/23 10:46:48;;;;;;;34.20;31.23;;;12.50;99.90;;;;;;4847550;29;20037;-86
2024/01/23 10:49:15;;;;;;;33.40;31.02;;;12.50;99.90;;;;;;4859683;29;20064;-86
2024/01/23 10:51:48;;;;;;;32.15;29.70;;;12.40;99.90;;;;;;4844489;29;20146;-86
2024/01/23 10:54:23;;;;;;;32.70;30.10;;;12.30;99.90;;;;;;4844343;29;20034;-86
2024/01/23 10:57:04;;;;;;;31.85;29.17;;;12.30;99.90;;;;;;4862505;29;20045;-88
2024/01/23 10:59:31;;;;;;;30.85;28.33;;;12.40;99.90;;;;;;4855928;29;20037;-85
2024/01/23 11:02:13;;;;;;;32.25;29.33;;;12.40;99.90;;;;;;4896912;29;20041;-85
2024/01/23 11:04:40;;;;;;;31.10;28.88;;;12.40;99.90;;;;;;4882668;29;20021;-85
2024/01/23 11:07:23;;;;;;;32.00;29.35;;;12.40;99.90;;;;;;4897193;29;20021;-92
2024/01/23 11:10:02;;;;;;;31.02;28.73;;;12.40;99.90;;;;;;4881819;29;20526;-90
2024/01/23 11:12:36;;;;;;;30.13;27.88;;;12.40;99.90;;;;;;4883613;29;20036;-88
2024/01/23 11:15:16;;;;;;;32.00;29.40;;;12.40;99.90;;;;;;4885076;29;20410;-88
2024/01/23 11:17:43;;;;;;;32.05;29.35;;;12.40;99.90;;;;;;4885103;29;20056;-89
2024/01/23 11:20:13;;;;;;;30.92;28.67;;;12.60;99.90;;;;;;4884739;29;20383;-89
2024/01/23 11:22:40;;;;;;;31.88;29.10;;;12.80;99.90;;;;;;4884959;29;20028;-89
2024/01/23 11:25:11;;;;;;;31.83;29.25;;;12.80;99.90;;;;;;4884905;29;20025;-89
2024/01/23 11:27:41;;;;;;;30.90;28.60;;;12.90;99.90;;;;;;4885024;29;20115;-89
2024/01/23 11:30:17;;;;;;;30.92;28.83;;;12.90;99.90;;;;;;4884692;29;20397;-89
2024/01/23 11:32:43;;;;;;;31.85;29.35;;;12.90;99.90;;;;;;4884639;29;20031;-88
2024/01/23 11:35:14;;;;;;;31.08;29.08;;;13.00;99.90;;;;;;4884693;29;20036;-88
2024/01/23 11:37:51;;;;;;;32.15;29.90;;;13.10;99.90;;;;;;4879325;29;20032;-89
2024/01/23 11:40:34;;;;;;;32.28;29.83;;;13.10;99.90;;;;;;4881328;29;20049;-88
2024/01/23 11:43:21;;;;;;;31.52;28.67;;;13.10;99.90;;;;;;4866303;29;20033;-88
2024/01/23 11:45:50;;;;;;;30.48;28.23;;;13.10;99.90;;;;;;4891881;29;20064;-89
2024/01/23 11:48:18;;;;;;;31.50;28.83;;;13.10;99.90;;;;;;4865687;29;20028;-88
2024/01/23 11:50:45;;;;;;;31.65;28.95;;;13.10;99.90;;;;;;4881343;29;20459;-88
2024/01/23 11:53:13;;;;;;;30.13;28.00;;;13.20;99.90;;;;;;4865772;29;20033;-89
2024/01/23 11:55:41;;;;;;;31.10;28.80;;;13.20;99.90;;;;;;4880928;29;20491;-88
2024/01/23 11:58:08;;;;;;;30.58;28.45;;;13.20;99.90;;;;;;4865702;29;20025;-88
2024/01/23 12:00:35;;;;;;;31.95;29.35;;;13.00;99.90;;;;;;4881081;29;20045;-88
2024/01/23 12:03:08;;;;;;;31.20;28.80;;;13.00;99.90;;;;;;4881679;29;20077;-88
2024/01/23 12:05:36;;;;;;;30.80;28.42;;;13.10;99.90;;;;;;4869347;29;20040;-89
2024/01/23 12:08:04;;;;;;;30.67;28.02;;;13.20;99.90;;;;;;4864903;29;20057;-88
2024/01/23 12:10:31;;;;;;;30.15;27.73;;;13.20;99.90;;;;;;4865416;29;20172;-88
2024/01/23 12:12:57;;;;;;;29.17;26.95;;;13.10;99.90;;;;;;4861973;29;20556;-88
2024/01/23 12:15:25;;;;;;;28.95;26.70;;;13.00;99.90;;;;;;4846734;29;20113;-88
2024/01/23 12:17:51;;;;;;;30.38;27.83;;;12.90;99.90;;;;;;4862241;29;20026;-88
2024/01/23 12:20:18;;;;;;;27.85;25.95;;;13.00;99.90;;;;;;4846889;29;20570;-88
2024/01/23 12:22:45;;;;;;;29.50;27.15;;;13.10;99.90;;;;;;4862164;29;20077;-88
2024/01/23 12:25:12;;;;;;;29.98;27.77;;;13.20;99.90;;;;;;4846919;29;20043;-87
2024/01/23 12:27:40;;;;;;;28.77;26.75;;;13.10;99.90;;;;;;4862244;29;20396;-88
2024/01/23 12:30:15;;;;;;;31.30;28.40;;;13.10;99.90;;;;;;4846458;29;20029;-88
2024/01/23 12:32:51;;;;;;;30.33;27.42;;;13.10;99.90;;;;;;4861972;29;20272;-88
2024/01/23 12:35:17;;;;;;;29.17;26.85;;;13.20;99.90;;;;;;4861963;29;20054;-86